LEAM

Almería International Airport

Airport
ICAO code
LEAM
IATA Code
LEI
Summary
ICAO Region
EUR
ICAO Territory
Location

, Andalucia

Serving
Almeria
Elevation
70 ft
Coordinates
36° 50' 38" N , 2° 22' 12" W
KCC
Metar
Observation
LEAM 050200Z AUTO 33010KT CAVOK 13/08 Q1012
Station
Almeria / Aeropuerto
Date/Time
2022-12-05 02:00:00
Wind direction
330°
Wind speed
10 kts
Lowest cloud amount
clouds and visibility OK
Temperature
13°C
Dew point
8°C
Humidity
71%
QNH
1012 hPa
Weather condition
n/a

Runways

Designator Length Width Surface Rops
8/26 3200 45 ASP Yes/Yes

Airport map

Aerial View

SKYbrary Partners:

Safety knowledge contributed by: